Time;durP1;ratioP1;P1;durP2;ratioP2;P2;SDS_P1;SDS_P2;PMS_P1;PMS_P2;Temp;Humidity;BMP_temperature;BMP_pressure;BME280_temperature;BME280_humidity;BME280_pressure;Samples;Min_cycle;Max_cycle;Signal;HPM_P1;HPM_P2
2023/06/25 14:45:26;;;;;;;2.20;2.05;;;48.70;30.20;;;;;;4820348;29;20051;-81
2023/06/25 14:47:52;;;;;;;1.83;1.73;;;48.30;29.40;;;;;;4840362;29;20042;-80
2023/06/25 14:50:18;;;;;;;2.65;2.45;;;47.40;29.60;;;;;;4826654;29;20037;-80
2023/06/25 14:52:44;;;;;;;2.35;2.00;;;46.80;30.30;;;;;;4819947;29;20030;-80
2023/06/25 14:55:10;;;;;;;2.72;2.30;;;45.60;30.50;;;;;;4822655;29;20045;-80
2023/06/25 15:13:11;;;;;;;6.95;2.30;;;39.60;36.80;;;;;;4842267;29;20137;-81
2023/06/25 15:15:37;;;;;;;2.78;2.28;;;39.30;37.00;;;;;;4826466;29;20501;-82
2023/06/25 15:18:03;;;;;;;6.22;2.45;;;39.10;37.90;;;;;;4827434;29;20036;-79
2023/06/25 15:20:28;;;;;;;5.63;2.13;;;38.80;38.20;;;;;;4843752;29;20097;-81
2023/06/25 15:22:54;;;;;;;3.67;2.25;;;38.70;37.90;;;;;;4843633;29;20054;-77
2023/06/25 15:25:20;;;;;;;3.90;2.25;;;38.40;38.30;;;;;;4843434;29;20561;-77
2023/06/25 15:27:46;;;;;;;3.90;2.00;;;38.20;38.10;;;;;;4825932;29;20030;-77
2023/06/25 15:30:12;;;;;;;;;;;38.10;37.60;;;;;;4812573;29;20030;-77
2023/06/25 15:32:38;;;;;;;2.85;2.13;;;37.90;41.90;;;;;;4826774;29;19908;-77
2023/06/25 15:35:04;;;;;;;;;;;37.60;38.30;;;;;;4826953;29;20108;-77
2023/06/25 15:37:29;;;;;;;3.72;2.08;;;37.50;42.90;;;;;;4843468;29;19924;-81
2023/06/25 15:39:55;;;;;;;2.40;2.13;;;37.40;38.50;;;;;;4812797;29;20040;-80
2023/06/25 15:42:21;;;;;;;5.55;2.50;;;37.30;39.20;;;;;;4845177;29;20049;-80
2023/06/25 15:44:47;;;;;;;;;;;37.10;39.60;;;;;;4812124;29;20030;-81
2023/06/25 15:47:13;;;;;;;2.63;2.00;;;36.90;41.90;;;;;;4844648;29;20068;-81
2023/06/25 15:49:38;;;;;;;;;;;36.80;40.00;;;;;;4836651;29;20030;-83
2023/06/25 15:52:04;;;;;;;10.57;5.60;;;36.60;43.20;;;;;;4854505;29;20554;-84
2023/06/25 15:54:30;;;;;;;3.00;2.75;;;36.60;40.90;;;;;;4821416;29;20045;-83
2023/06/25 15:56:56;;;;;;;2.55;2.30;;;36.60;40.70;;;;;;4832576;29;20034;-81
2023/06/25 15:59:22;;;;;;;2.00;1.85;;;36.60;40.90;;;;;;4845979;29;20497;-79
2023/06/25 16:01:47;;;;;;;4.07;1.83;;;36.50;40.50;;;;;;4843998;29;20112;-79
2023/06/25 16:04:13;;;;;;;3.25;2.72;;;36.40;40.40;;;;;;4826636;29;20042;-79
2023/06/25 16:06:39;;;;;;;2.17;1.98;;;36.20;40.70;;;;;;4811789;29;20025;-80
2023/06/25 16:09:05;;;;;;;4.45;2.30;;;36.10;39.80;;;;;;4827077;29;20390;-79
2023/06/25 16:11:32;;;;;;;2.83;2.22;;;36.00;40.00;;;;;;4842785;29;20034;-80
2023/06/25 16:13:57;;;;;;;2.92;2.53;;;35.90;40.90;;;;;;4826265;29;20040;-80
2023/06/25 16:16:23;;;;;;;3.45;2.58;;;36.00;41.10;;;;;;4842633;29;20501;-80
2023/06/25 16:18:50;;;;;;;4.47;2.08;;;35.90;41.10;;;;;;4842438;29;20037;-79
2023/06/25 16:21:16;;;;;;;5.40;2.70;;;35.90;41.20;;;;;;4842837;29;20509;-80
2023/06/25 16:23:43;;;;;;;3.38;2.40;;;35.70;41.30;;;;;;4826448;29;20057;-80
2023/06/25 16:26:09;;;;;;;4.43;2.20;;;35.70;41.10;;;;;;4826346;29;20030;-80
2023/06/25 16:28:38;;;;;;;2.50;2.10;;;35.60;41.30;;;;;;4842398;29;20033;-79
2023/06/25 16:31:04;;;;;;;2.60;2.00;;;35.60;40.90;;;;;;4825867;29;20033;-79
2023/06/25 16:33:30;;;;;;;3.47;2.17;;;35.40;41.60;;;;;;4842128;29;20531;-79
2023/06/25 16:35:56;;;;;;;2.90;2.28;;;35.40;41.30;;;;;;4825980;29;20038;-81
2023/06/25 16:38:21;;;;;;;5.00;2.67;;;35.30;40.90;;;;;;4825841;29;20042;-78
2023/06/25 16:40:47;;;;;;;3.50;2.20;;;35.20;40.70;;;;;;4827442;29;20072;-77
2023/06/25 16:43:13;;;;;;;2.80;2.50;;;35.20;41.90;;;;;;4843292;29;20499;-78
2023/06/25 16:45:39;;;;;;;3.17;2.40;;;35.10;41.90;;;;;;4826814;29;20036;-78
2023/06/25 16:48:07;;;;;;;3.30;2.30;;;35.10;42.20;;;;;;4826682;29;20090;-78
2023/06/25 16:50:32;;;;;;;7.35;2.60;;;35.10;41.70;;;;;;4843648;29;20080;-77
2023/06/25 16:52:58;;;;;;;2.65;2.40;;;35.00;41.60;;;;;;4826667;29;20500;-77
2023/06/25 16:55:24;;;;;;;4.90;2.35;;;34.90;41.30;;;;;;4843050;29;20113;-77
2023/06/25 16:57:50;;;;;;;5.68;2.97;;;34.80;41.60;;;;;;4829376;29;20090;-78
2023/06/25 17:00:16;;;;;;;3.08;2.85;;;34.80;42.10;;;;;;4848365;29;20120;-79
2023/06/25 17:02:43;;;;;;;2.63;2.03;;;34.70;42.30;;;;;;4848323;29;20049;-79
2023/06/25 17:05:09;;;;;;;5.85;2.22;;;34.70;42.60;;;;;;4830373;29;20493;-79
2023/06/25 17:07:36;;;;;;;8.13;2.95;;;34.70;42.40;;;;;;4846348;29;20034;-81
2023/06/25 17:10:02;;;;;;;3.70;2.17;;;34.60;42.60;;;;;;4830286;29;20105;-82
2023/06/25 17:12:28;;;;;;;;;;;34.60;42.50;;;;;;4829679;29;20038;-82
2023/06/25 17:14:53;;;;;;;3.58;2.00;;;34.50;45.00;;;;;;4844614;29;19917;-81
2023/06/25 17:17:19;;;;;;;2.47;1.92;;;34.50;42.80;;;;;;4845174;29;20041;-81
2023/06/25 17:19:45;;;;;;;8.50;2.42;;;34.40;42.50;;;;;;4844301;29;20033;-82
2023/06/25 17:22:11;;;;;;;2.70;1.90;;;34.30;42.20;;;;;;4843932;29;20044;-81
2023/06/25 17:24:37;;;;;;;4.45;2.28;;;34.30;42.30;;;;;;4826923;29;20034;-80
2023/06/25 17:27:03;;;;;;;4.05;2.28;;;34.20;42.70;;;;;;4814366;29;20590;-81
2023/06/25 17:29:29;;;;;;;14.40;3.00;;;34.10;42.20;;;;;;4843703;29;20536;-83
2023/06/25 17:31:55;;;;;;;4.10;2.28;;;34.10;43.50;;;;;;4842730;29;20038;-81
2023/06/25 17:34:20;;;;;;;3.33;2.33;;;33.90;43.60;;;;;;4826189;29;20103;-82
2023/06/25 17:36:46;;;;;;;12.43;4.38;;;33.90;44.20;;;;;;4842118;29;20445;-85
2023/06/25 17:39:12;;;;;;;783.08;497.25;;;33.80;44.10;;;;;;4809960;29;20030;-83
2023/06/25 17:41:38;;;;;;;143.55;100.97;;;33.70;44.70;;;;;;4843577;29;20033;-81
2023/06/25 17:44:04;;;;;;;6.25;3.78;;;33.60;44.70;;;;;;4844069;29;20474;-81
2023/06/25 17:46:29;;;;;;;2.70;2.15;;;33.60;45.00;;;;;;4842141;29;20026;-81
2023/06/25 17:48:57;;;;;;;3.15;2.85;;;33.50;45.00;;;;;;4841694;29;20034;-81
2023/06/25 17:51:23;;;;;;;10.50;2.97;;;33.50;45.40;;;;;;4832431;29;20109;-81
2023/06/25 17:53:49;;;;;;;4.80;2.42;;;33.40;45.20;;;;;;4846007;29;20050;-81
2023/06/25 17:56:15;;;;;;;5.68;2.78;;;33.30;44.30;;;;;;4829186;29;20092;-81
2023/06/25 17:58:41;;;;;;;3.20;2.85;;;33.20;44.60;;;;;;4846480;29;20666;-81
2023/06/25 18:01:07;;;;;;;2.42;2.22;;;33.20;45.40;;;;;;4828525;29;20045;-80
2023/06/25 18:03:33;;;;;;;5.50;2.45;;;33.10;45.80;;;;;;4827712;29;20037;-81
2023/06/25 18:05:59;;;;;;;8.13;2.50;;;33.00;45.70;;;;;;4850186;29;20036;-81
2023/06/25 18:08:25;;;;;;;5.35;2.55;;;32.90;46.00;;;;;;4829290;29;20032;-81
2023/06/25 18:10:52;;;;;;;3.03;2.40;;;32.80;45.60;;;;;;4828112;29;20401;-80
2023/06/25 18:13:18;;;;;;;4.75;2.55;;;32.80;46.60;;;;;;4828702;29;20034;-81
2023/06/25 18:15:44;;;;;;;5.07;2.70;;;32.70;46.30;;;;;;4828060;29;20055;-81
2023/06/25 18:18:15;;;;;;;6.00;2.63;;;32.60;46.50;;;;;;4845361;29;20065;-81
2023/06/25 18:20:41;;;;;;;6.05;2.42;;;32.60;46.30;;;;;;4844624;29;20117;-81
2023/06/25 18:23:06;;;;;;;4.05;2.42;;;32.40;46.40;;;;;;4843651;29;20069;-81
2023/06/25 18:25:32;;;;;;;5.22;2.65;;;32.30;47.40;;;;;;4844603;29;20034;-81
2023/06/25 18:27:58;;;;;;;5.80;2.72;;;32.30;47.80;;;;;;4857382;29;20025;-81
2023/06/25 18:30:24;;;;;;;5.95;2.42;;;32.30;48.30;;;;;;4846948;29;20537;-81
2023/06/25 18:32:50;;;;;;;4.38;2.53;;;32.20;48.20;;;;;;4821644;29;20034;-81
2023/06/25 18:35:20;;;;;;;5.43;2.63;;;32.10;48.30;;;;;;4828033;29;20029;-83
2023/06/25 18:37:47;;;;;;;60.88;6.85;;;32.00;48.10;;;;;;4820019;29;20085;-83
2023/06/25 18:40:12;;;;;;;;;;;31.90;48.70;;;;;;4828611;29;20523;-82
2023/06/25 18:42:38;;;;;;;12.57;3.70;;;31.70;49.70;;;;;;4827362;29;20006;-79
2023/06/25 18:45:04;;;;;;;333.90;218.68;;;31.60;49.70;;;;;;4847073;29;20034;-81
2023/06/25 18:47:31;;;;;;;30.30;10.13;;;31.60;50.30;;;;;;4854327;29;20098;-78
2023/06/25 18:49:57;;;;;;;19.75;4.72;;;31.50;50.50;;;;;;4813800;29;20033;-80
2023/06/25 18:52:24;;;;;;;12.65;4.43;;;31.40;50.70;;;;;;4827738;29;20172;-79
2023/06/25 18:54:50;;;;;;;7.15;3.47;;;31.40;51.10;;;;;;4837319;29;20036;-79
2023/06/25 18:57:15;;;;;;;9.15;3.25;;;31.20;51.50;;;;;;4831069;29;20030;-79
2023/06/25 18:59:41;;;;;;;8.18;3.40;;;31.20;52.50;;;;;;4833734;29;20065;-79
2023/06/25 19:02:07;;;;;;;11.23;3.03;;;31.10;52.00;;;;;;4843361;29;20071;-79
2023/06/25 19:04:35;;;;;;;15.90;3.10;;;31.00;52.20;;;;;;4808922;29;20063;-80
2023/06/25 19:07:01;;;;;;;12.07;3.10;;;30.90;52.40;;;;;;4840743;29;20139;-80
2023/06/25 19:09:29;;;;;;;5.55;3.20;;;30.90;52.20;;;;;;4809218;29;20061;-79
2023/06/25 19:11:55;;;;;;;22.60;10.38;;;30.80;52.90;;;;;;4854438;29;20420;-80
2023/06/25 19:14:21;;;;;;;6.90;3.55;;;30.70;53.00;;;;;;4837110;29;20070;-79
2023/06/25 19:16:47;;;;;;;3.70;3.20;;;30.70;53.50;;;;;;4845622;29;20026;-80
2023/06/25 19:19:13;;;;;;;6.15;3.30;;;30.60;53.80;;;;;;4829314;29;20091;-79
2023/06/25 19:21:39;;;;;;;8.40;2.90;;;30.50;54.10;;;;;;4849946;29;20114;-80
2023/06/25 19:24:05;;;;;;;5.35;3.28;;;30.40;54.40;;;;;;4830869;29;20023;-82
2023/06/25 19:26:31;;;;;;;5.63;3.75;;;30.40;54.20;;;;;;4841871;29;20034;-79
2023/06/25 19:28:57;;;;;;;6.15;3.58;;;30.30;54.00;;;;;;4855172;29;20033;-78
2023/06/25 19:31:23;;;;;;;6.35;2.95;;;30.30;53.40;;;;;;4849742;29;20495;-79
2023/06/25 19:33:49;;;;;;;4.95;2.45;;;30.10;52.80;;;;;;4849820;29;20037;-78
2023/06/25 19:36:15;;;;;;;14.27;3.40;;;30.00;52.60;;;;;;4857935;29;20033;-79
2023/06/25 19:38:41;;;;;;;7.78;2.33;;;30.00;52.50;;;;;;4855799;29;20120;-79
2023/06/25 19:41:06;;;;;;;6.50;2.60;;;29.90;52.10;;;;;;4855993;29;20063;-78
2023/06/25 19:43:32;;;;;;;11.75;3.35;;;29.80;52.30;;;;;;4849987;29;20054;-78
2023/06/25 19:45:58;;;;;;;6.68;3.25;;;29.80;52.40;;;;;;4855601;29;20113;-78
2023/06/25 19:48:24;;;;;;;13.57;3.75;;;29.80;52.50;;;;;;4850685;29;20094;-79
2023/06/25 19:50:50;;;;;;;6.05;3.00;;;29.70;52.30;;;;;;4835640;29;20033;-78
2023/06/25 19:53:16;;;;;;;5.35;2.65;;;29.70;52.80;;;;;;4846174;29;20034;-80
2023/06/25 19:55:44;;;;;;;5.75;3.53;;;29.70;53.40;;;;;;4854255;29;20038;-79
2023/06/25 19:58:10;;;;;;;8.55;3.47;;;29.60;53.90;;;;;;4828968;29;20452;-80
2023/06/25 20:00:36;;;;;;;16.58;3.65;;;29.60;54.60;;;;;;4829734;29;20033;-79
2023/06/25 20:03:02;;;;;;;8.17;4.60;;;29.60;55.40;;;;;;4844159;29;20068;-80
2023/06/25 20:05:27;;;;;;;7.03;4.68;;;29.50;55.60;;;;;;4855813;29;20278;-79
2023/06/25 20:07:59;;;;;;;8.63;4.30;;;29.50;55.60;;;;;;4828509;29;20036;-80
2023/06/25 20:10:25;;;;;;;11.20;4.40;;;29.40;55.80;;;;;;4845035;29;20068;-80
2023/06/25 20:12:51;;;;;;;23.80;4.40;;;29.30;56.00;;;;;;4842580;29;20444;-80
2023/06/25 20:15:17;;;;;;;8.18;4.65;;;29.30;56.30;;;;;;4839659;29;20099;-79
2023/06/25 20:17:43;;;;;;;7.53;4.22;;;29.20;56.40;;;;;;4812739;29;20421;-79
2023/06/25 20:20:10;;;;;;;10.50;3.55;;;29.20;56.40;;;;;;4851797;29;20086;-80
2023/06/25 20:22:36;;;;;;;10.95;6.05;;;29.10;56.40;;;;;;4846392;29;20162;-80
2023/06/25 20:25:02;;;;;;;7.63;3.95;;;29.10;56.70;;;;;;4856693;29;20097;-81
2023/06/25 20:27:27;;;;;;;7.88;4.38;;;29.10;56.90;;;;;;4827806;29;20418;-80
2023/06/25 20:29:53;;;;;;;12.40;4.90;;;29.10;57.30;;;;;;4849106;29;20034;-79
2023/06/25 20:32:19;;;;;;;11.73;4.57;;;29.00;57.40;;;;;;4845069;29;20274;-80
2023/06/25 20:34:45;;;;;;;12.98;5.45;;;29.00;57.60;;;;;;4839565;29;20115;-80
2023/06/25 20:37:11;;;;;;;6.90;4.93;;;28.90;57.80;;;;;;4845363;29;20116;-80
2023/06/25 20:39:36;;;;;;;15.82;5.90;;;28.90;58.00;;;;;;4848254;29;20393;-80
2023/06/25 20:42:02;;;;;;;10.07;5.73;;;28.90;58.40;;;;;;4859585;29;20025;-79
2023/06/25 20:44:34;;;;;;;6.85;4.75;;;28.80;58.30;;;;;;4856344;29;20301;-80
2023/06/25 20:47:01;;;;;;;19.05;5.07;;;28.70;58.40;;;;;;4829965;29;20067;-79
2023/06/25 20:49:29;;;;;;;11.40;4.50;;;28.70;59.60;;;;;;4845617;29;20418;-83
2023/06/25 20:51:56;;;;;;;10.35;5.45;;;28.60;59.00;;;;;;4841702;29;20058;-85
2023/06/25 20:54:23;;;;;;;9.27;5.50;;;28.50;59.20;;;;;;4824642;29;20036;-84
2023/06/25 20:56:49;;;;;;;9.70;4.75;;;28.50;59.40;;;;;;4810493;29;20068;-83
